Time;durP1;ratioP1;P1;durP2;ratioP2;P2;SDS_P1;SDS_P2;PMS_P1;PMS_P2;Temp;Humidity;BMP_temperature;BMP_pressure;BME280_temperature;BME280_humidity;BME280_pressure;Samples;Min_cycle;Max_cycle;Signal;HPM_P1;HPM_P2
2022/05/14 06:33:11;;;;;;;3.45;1.00;;;20.30;93.70;;;;;;4587318;19;20015;-29
2022/05/14 06:34:43;;;;;;;1.83;0.95;;;20.30;93.80;;;;;;4592090;19;20039;-29
2022/05/14 06:36:14;;;;;;;1.83;0.90;;;20.30;93.70;;;;;;4589868;19;20014;-30
2022/05/14 06:37:45;;;;;;;4.03;1.20;;;20.30;93.70;;;;;;4589252;19;20483;-28
2022/05/14 06:39:16;;;;;;;1.95;0.90;;;20.30;94.10;;;;;;4591291;19;20021;-28
2022/05/14 06:40:49;;;;;;;1.23;0.80;;;20.40;95.10;;;;;;4590284;19;20025;-29
2022/05/14 06:42:20;;;;;;;1.60;1.00;;;20.40;93.70;;;;;;4590110;19;20014;-28
2022/05/14 06:43:51;;;;;;;1.55;0.82;;;20.40;93.80;;;;;;4588759;19;20013;-28
2022/05/14 06:45:22;;;;;;;1.60;1.00;;;20.30;93.40;;;;;;4589902;19;20010;-28
2022/05/14 06:46:54;;;;;;;1.48;0.80;;;20.30;93.40;;;;;;4592360;19;20109;-28
2022/05/14 06:48:25;;;;;;;1.65;0.82;;;20.30;93.60;;;;;;4591662;19;20007;-29
2022/05/14 06:50:00;;;;;;;;;;;20.30;93.40;;;;;;4591593;19;20034;-28
2022/05/14 06:51:32;;;;;;;2.58;1.13;;;20.30;94.10;;;;;;4589972;19;20260;-27
2022/05/14 06:53:04;;;;;;;2.05;1.20;;;20.20;93.20;;;;;;4588714;19;20022;-28
2022/05/14 06:54:36;;;;;;;3.22;1.60;;;20.10;93.30;;;;;;4588345;19;20058;-29
2022/05/14 06:56:07;;;;;;;3.13;1.35;;;20.00;93.30;;;;;;4588871;19;20002;-27
2022/05/14 06:57:39;;;;;;;2.65;1.30;;;20.00;93.30;;;;;;4590593;19;20018;-28
2022/05/14 06:59:10;;;;;;;2.40;1.00;;;19.90;93.30;;;;;;4590625;19;20011;-28
2022/05/14 07:00:42;;;;;;;5.38;1.25;;;19.90;93.30;;;;;;4590080;19;20022;-28
2022/05/14 07:02:13;;;;;;;3.35;1.30;;;19.90;93.30;;;;;;4590170;19;20038;-30
2022/05/14 07:07:25;;;;;;;3.35;1.20;;;19.70;93.10;;;;;;4589739;19;20011;-28
2022/05/14 07:08:56;;;;;;;3.25;1.48;;;19.70;93.10;;;;;;4591189;19;20066;-29
2022/05/14 07:10:30;;;;;;;1.85;1.05;;;19.70;93.00;;;;;;4591301;19;20390;-29
2022/05/14 07:12:03;;;;;;;3.53;1.20;;;19.60;92.90;;;;;;4590672;19;20059;-28
2022/05/14 07:13:34;;;;;;;;;;;19.60;92.80;;;;;;4590525;19;20010;-28
2022/05/14 07:15:07;;;;;;;;;;;19.60;92.70;;;;;;4591330;19;19907;-28
2022/05/14 07:16:38;;;;;;;;;;;19.60;92.80;;;;;;4591493;19;19922;-28
2022/05/14 07:18:09;;;;;;;;;;;19.60;92.70;;;;;;4590490;19;19925;-28
2022/05/14 07:19:40;;;;;;;;;;;19.60;92.70;;;;;;4591310;19;19922;-28
2022/05/14 07:21:11;;;;;;;;;;;19.60;92.50;;;;;;4591814;19;19918;-28
2022/05/14 07:22:42;;;;;;;;;;;19.50;92.70;;;;;;4591776;19;20329;-28
2022/05/14 07:24:15;;;;;;;;;;;19.50;92.80;;;;;;4591418;19;19915;-28
2022/05/14 07:25:46;;;;;;;;;;;19.50;92.50;;;;;;4590280;19;19930;-28
2022/05/14 07:27:17;;;;;;;;;;;19.50;92.50;;;;;;4590458;19;19925;-29
2022/05/14 07:28:48;;;;;;;;;;;19.50;92.40;;;;;;4590179;19;19932;-28
2022/05/14 07:30:20;;;;;;;;;;;19.60;92.40;;;;;;4590059;19;19914;-28
2022/05/14 07:31:52;;;;;;;;;;;19.50;92.40;;;;;;4589743;19;20329;-28
2022/05/14 07:33:23;;;;;;;;;;;19.60;92.30;;;;;;4590058;19;19972;-28
2022/05/14 07:34:53;;;;;;;;;;;19.60;92.30;;;;;;4590763;19;19945;-28
2022/05/14 07:36:25;;;;;;;;;;;19.60;92.50;;;;;;4590784;19;19929;-27
2022/05/14 07:37:56;;;;;;;;;;;19.50;92.10;;;;;;4591791;19;19914;-28
2022/05/14 07:39:27;;;;;;;;;;;19.50;92.20;;;;;;4591688;19;19922;-28
2022/05/14 07:40:58;;;;;;;;;;;19.60;92.20;;;;;;4590216;19;20349;-29
2022/05/14 07:42:33;;;;;;;;;;;19.60;92.10;;;;;;4591692;19;19982;-28
2022/05/14 07:44:04;;;;;;;;;;;19.50;92.20;;;;;;4593395;19;19933;-28
2022/05/14 07:45:35;;;;;;;;;;;19.50;92.10;;;;;;4592784;19;20346;-29
2022/05/14 07:47:06;;;;;;;;;;;19.50;92.70;;;;;;4590828;19;19919;-28
2022/05/14 07:48:38;;;;;;;;;;;19.50;91.90;;;;;;4592604;19;19918;-28
2022/05/14 07:50:09;;;;;;;;;;;19.50;92.10;;;;;;4591091;19;19910;-28
2022/05/14 07:51:41;;;;;;;;;;;19.50;91.90;;;;;;4597077;19;19921;-29
2022/05/14 07:53:13;;;;;;;;;;;19.40;91.90;;;;;;4598046;19;19950;-28
2022/05/14 07:54:44;;;;;;;;;;;19.40;91.70;;;;;;4597731;19;20266;-28
2022/05/14 07:56:15;;;;;;;;;;;19.40;91.60;;;;;;4599844;19;19919;-27
2022/05/14 07:57:46;;;;;;;;;;;19.70;93.40;;;;;;4600678;19;19919;-27
2022/05/14 07:59:16;;;;;;;;;;;20.00;91.70;;;;;;4600316;19;20230;-27
2022/05/14 08:00:48;;;;;;;;;;;20.10;91.00;;;;;;4599734;19;19985;-28
2022/05/14 08:02:22;;;;;;;;;;;20.20;90.70;;;;;;4599965;19;19918;-28
2022/05/14 08:03:53;;;;;;;;;;;20.40;90.50;;;;;;4598708;19;19925;-30
2022/05/14 08:05:24;;;;;;;;;;;20.50;90.20;;;;;;4598776;19;19911;-30
2022/05/14 08:06:55;;;;;;;;;;;20.60;91.10;;;;;;4598946;19;19915;-28
2022/05/14 08:08:26;;;;;;;2.92;1.23;;;20.60;89.90;;;;;;4595724;19;20261;-28
2022/05/14 08:09:58;;;;;;;2.88;1.20;;;20.60;89.40;;;;;;4588640;19;20014;-28
2022/05/14 08:11:30;;;;;;;3.03;1.42;;;20.60;89.60;;;;;;4589788;19;20014;-28
2022/05/14 08:13:02;;;;;;;3.83;1.20;;;20.50;91.00;;;;;;4590389;19;20464;-28
2022/05/14 08:14:33;;;;;;;2.78;1.20;;;20.50;89.70;;;;;;4590347;19;20011;-28
2022/05/14 08:16:04;;;;;;;3.05;1.30;;;20.40;90.20;;;;;;4589443;19;20348;-28
2022/05/14 08:17:35;;;;;;;4.93;1.73;;;20.40;90.70;;;;;;4589543;19;20015;-29
2022/05/14 08:19:07;;;;;;;3.53;1.60;;;20.40;89.90;;;;;;4590089;19;20002;-29
2022/05/14 08:20:39;;;;;;;4.95;1.90;;;20.40;90.20;;;;;;4589430;19;20475;-28
2022/05/14 08:25:49;;;;;;;3.30;1.52;;;20.50;89.20;;;;;;4589775;19;20029;-29
2022/05/14 08:27:20;;;;;;;4.95;1.65;;;20.60;89.80;;;;;;4591561;19;20002;-30
2022/05/14 08:28:51;;;;;;;7.97;1.98;;;20.80;91.40;;;;;;4590068;19;20010;-29
2022/05/14 08:30:25;;;;;;;4.28;2.25;;;21.20;96.80;;;;;;4590205;19;20010;-28
2022/05/14 08:31:56;;;;;;;3.20;1.60;;;21.40;92.10;;;;;;4591666;19;20034;-28
2022/05/14 08:33:27;;;;;;;;;;;19.10;87.00;;;;;;4592048;19;20381;-27
2022/05/14 08:34:58;;;;;;;3.47;1.58;;;17.60;90.00;;;;;;4591487;19;19926;-27
2022/05/14 08:36:29;;;;;;;;;;;16.80;91.10;;;;;;4590509;19;20022;-27
2022/05/14 08:38:00;;;;;;;;;;;16.30;92.10;;;;;;4591657;19;19919;-27
2022/05/14 08:39:31;;;;;;;;;;;16.00;93.00;;;;;;4589883;19;19925;-27
2022/05/14 08:41:03;;;;;;;3.78;1.90;;;15.80;93.10;;;;;;4590844;19;19915;-29
2022/05/14 08:42:34;;;;;;;3.97;1.65;;;15.70;93.60;;;;;;4589992;19;20010;-28
2022/05/14 08:44:11;;;;;;;3.88;1.42;;;15.60;93.90;;;;;;4590962;19;20086;-28
2022/05/14 08:45:42;;;;;;;2.10;1.58;;;15.60;93.90;;;;;;4588065;19;20006;-28
2022/05/14 08:47:34;;;;;;;2.55;1.30;;;15.60;93.70;;;;;;4589145;19;20006;-27
2022/05/14 08:49:27;;;;;;;;;;;15.60;93.50;;;;;;4589068;19;20052;-26
2022/05/14 08:51:04;;;;;;;;;;;15.50;93.30;;;;;;4590330;19;19925;-27
2022/05/14 08:52:35;;;;;;;;;;;15.50;93.90;;;;;;4588531;19;19915;-28
2022/05/14 08:54:06;;;;;;;;;;;15.50;95.00;;;;;;4589077;19;20247;-28
2022/05/14 08:55:39;;;;;;;;;;;15.50;94.40;;;;;;4589196;19;19915;-28
2022/05/14 08:57:39;;;;;;;;;;;15.50;94.70;;;;;;4588984;19;19949;-27
2022/05/14 08:59:21;;;;;;;;;;;15.40;94.10;;;;;;4590469;19;19958;-27
2022/05/14 09:00:52;;;;;;;;;;;15.50;93.90;;;;;;4593233;19;19947;-28
2022/05/14 09:02:31;;;;;;;;;;;15.40;94.30;;;;;;4594333;19;19974;-27
2022/05/14 09:04:01;;;;;;;;;;;15.40;95.30;;;;;;4594781;19;19925;-28
2022/05/14 09:05:34;;;;;;;;;;;15.40;95.20;;;;;;4594894;19;19922;-28
2022/05/14 09:07:04;;;;;;;;;;;15.40;95.20;;;;;;4593532;19;19911;-28
2022/05/14 09:08:36;;;;;;;;;;;15.40;94.80;;;;;;4593802;19;19915;-27
2022/05/14 09:10:08;;;;;;;;;;;15.40;94.20;;;;;;4592502;19;19915;-27
2022/05/14 09:11:58;;;;;;;;;;;15.40;94.60;;;;;;4590256;19;19918;-28
2022/05/14 09:13:34;;;;;;;;;;;15.40;95.00;;;;;;4592347;19;19915;-28
2022/05/14 09:15:13;;;;;;;;;;;15.40;94.80;;;;;;4594612;19;19976;-28
2022/05/14 09:16:44;;;;;;;;;;;15.40;94.80;;;;;;4592984;19;19926;-27
2022/05/14 09:18:21;;;;;;;;;;;15.40;94.60;;;;;;4594611;19;19919;-28
2022/05/14 09:19:52;;;;;;;;;;;15.40;94.90;;;;;;4594808;19;19918;-27
2022/05/14 09:21:25;;;;;;;;;;;15.40;94.90;;;;;;4593590;19;19939;-27
2022/05/14 09:22:56;;;;;;;;;;;15.30;95.00;;;;;;4593805;19;20365;-28
2022/05/14 09:24:28;;;;;;;;;;;15.30;94.70;;;;;;4594552;19;19917;-27
2022/05/14 09:26:09;;;;;;;;;;;15.40;94.60;;;;;;4594454;19;19919;-27
2022/05/14 09:27:41;;;;;;;;;;;15.40;94.90;;;;;;4593013;19;19911;-27
2022/05/14 09:29:18;;;;;;;;;;;15.30;94.80;;;;;;4592905;19;19907;-28
2022/05/14 09:30:53;;;;;;;;;;;15.40;94.80;;;;;;4593622;19;19911;-27
2022/05/14 09:32:26;;;;;;;;;;;15.30;95.10;;;;;;4593669;19;19918;-27
2022/05/14 09:34:01;;;;;;;;;;;15.30;95.30;;;;;;4591947;19;19919;-28
2022/05/14 09:35:32;;;;;;;;;;;15.40;94.90;;;;;;4593355;19;19914;-28
2022/05/14 09:37:08;;;;;;;;;;;15.30;94.90;;;;;;4594532;19;20330;-28
2022/05/14 09:38:39;;;;;;;;;;;15.30;94.90;;;;;;4594457;19;19938;-28
2022/05/14 09:40:12;;;;;;;;;;;15.30;94.70;;;;;;4594493;19;19911;-27
2022/05/14 09:41:48;;;;;;;;;;;15.30;95.10;;;;;;4592625;19;20341;-28
2022/05/14 09:43:18;;;;;;;;;;;15.30;95.20;;;;;;4593983;19;19918;-27
2022/05/14 09:44:50;;;;;;;;;;;15.30;95.20;;;;;;4594659;19;19915;-27
2022/05/14 09:46:25;;;;;;;;;;;15.30;95.10;;;;;;4592660;19;19918;-28
2022/05/14 09:47:55;;;;;;;;;;;15.30;95.00;;;;;;4593498;19;19915;-27
2022/05/14 09:49:26;;;;;;;;;;;15.30;95.20;;;;;;4594422;19;20282;-26
2022/05/14 09:51:01;;;;;;;;;;;15.30;95.40;;;;;;4594143;19;19949;-27
2022/05/14 09:52:33;;;;;;;;;;;15.30;95.90;;;;;;4591979;19;20015;-28
2022/05/14 09:54:23;;;;;;;;;;;15.30;95.90;;;;;;4593589;19;19946;-27
2022/05/14 09:55:53;;;;;;;;;;;15.30;95.90;;;;;;4593310;19;19919;-27
2022/05/14 09:57:24;;;;;;;;;;;15.30;95.60;;;;;;4593982;19;20348;-27
2022/05/14 09:58:55;;;;;;;;;;;15.30;95.60;;;;;;4594006;19;19978;-27
2022/05/14 10:00:29;;;;;;;;;;;15.30;95.80;;;;;;4592472;19;20263;-27
2022/05/14 10:02:11;;;;;;;;;;;15.30;95.90;;;;;;4592832;19;19917;-27
2022/05/14 10:03:51;;;;;;;;;;;15.30;95.70;;;;;;4593714;19;19915;-28
2022/05/14 10:05:35;;;;;;;;;;;15.30;95.60;;;;;;4593765;19;19911;-27
2022/05/14 10:07:11;;;;;;;;;;;15.30;95.50;;;;;;4593363;19;19922;-27
2022/05/14 10:09:00;;;;;;;;;;;15.30;95.00;;;;;;4592218;19;19919;-27
2022/05/14 10:10:38;;;;;;;;;;;15.30;95.40;;;;;;4592293;19;19915;-27
2022/05/14 10:12:18;;;;;;;;;;;15.30;95.10;;;;;;4592807;19;19915;-28
2022/05/14 10:14:01;;;;;;;;;;;15.30;95.40;;;;;;4592075;19;19917;-27
2022/05/14 10:15:40;;;;;;;;;;;15.30;95.10;;;;;;4592821;19;20006;-28
2022/05/14 10:17:30;;;;;;;;;;;15.30;95.40;;;;;;4591838;19;19914;-27
2022/05/14 10:19:13;;;;;;;;;;;15.30;95.30;;;;;;4592946;19;19922;-28
2022/05/14 10:20:46;;;;;;;;;;;15.30;96.00;;;;;;4593113;19;19931;-27
2022/05/14 10:22:20;;;;;;;;;;;15.30;96.10;;;;;;4593207;19;19915;-28
2022/05/14 10:28:07;;;;;;;;;;;15.30;96.40;;;;;;4591757;19;19971;-26
2022/05/14 10:29:38;;;;;;;;;;;15.30;95.80;;;;;;4592924;19;19974;-26
2022/05/14 10:31:21;;;;;;;;;;;15.30;96.10;;;;;;4593281;19;19939;-28
2022/05/14 10:32:54;;;;;;;;;;;15.30;96.00;;;;;;4592347;19;19915;-27
2022/05/14 10:34:45;;;;;;;;;;;15.30;96.60;;;;;;4592892;19;19923;-28
2022/05/14 10:36:28;;;;;;;;;;;15.30;96.20;;;;;;4591863;19;19915;-27
2022/05/14 10:38:06;;;;;;;;;;;15.30;96.60;;;;;;4591618;19;19986;-27
2022/05/14 10:39:48;;;;;;;;;;;15.30;96.50;;;;;;4591650;19;19919;-28
2022/05/14 10:41:26;;;;;;;;;;;15.30;96.20;;;;;;4592127;19;19918;-27
2022/05/14 10:43:01;;;;;;;;;;;15.30;96.10;;;;;;4591461;19;19922;-27
2022/05/14 10:45:03;;;;;;;;;;;15.30;96.20;;;;;;4591444;19;19915;-27
2022/05/14 10:46:35;;;;;;;;;;;15.30;96.50;;;;;;4590165;19;19929;-27
2022/05/14 10:48:38;;;;;;;;;;;15.30;96.30;;;;;;4590425;19;20321;-28
2022/05/14 10:50:11;;;;;;;;;;;15.30;96.80;;;;;;4590271;19;19978;-28
2022/05/14 10:51:44;;;;;;;;;;;15.30;97.10;;;;;;4589682;19;19922;-27
2022/05/14 10:53:14;;;;;;;;;;;15.30;96.70;;;;;;4590641;19;19915;-27
2022/05/14 10:54:45;;;;;;;;;;;15.30;96.90;;;;;;4589901;19;19944;-27
2022/05/14 10:56:21;;;;;;;;;;;15.30;96.40;;;;;;4589430;19;19926;-27
2022/05/14 10:57:54;;;;;;;;;;;15.30;96.10;;;;;;4590206;19;19919;-27
2022/05/14 10:59:33;;;;;;;;;;;15.30;96.30;;;;;;4590523;19;19922;-27
2022/05/14 11:01:05;;;;;;;;;;;15.30;96.10;;;;;;4590010;19;19932;-27
2022/05/14 11:02:38;;;;;;;;;;;15.30;96.30;;;;;;4590156;19;19914;-28
2022/05/14 11:04:13;;;;;;;;;;;15.30;96.30;;;;;;4589814;19;20383;-27
2022/05/14 11:05:49;;;;;;;;;;;15.30;96.50;;;;;;4590140;19;19960;-28
2022/05/14 11:07:26;;;;;;;;;;;15.30;96.70;;;;;;4589630;19;19914;-27
2022/05/14 11:08:57;;;;;;;;;;;15.30;96.80;;;;;;4589865;19;19918;-27
2022/05/14 11:10:28;;;;;;;;;;;15.30;96.80;;;;;;4589826;19;19919;-28
2022/05/14 11:12:00;;;;;;;;;;;15.30;96.90;;;;;;4590333;19;19925;-27
2022/05/14 11:13:31;;;;;;;;;;;15.30;97.30;;;;;;4589672;19;20061;-27
2022/05/14 11:15:02;;;;;;;;;;;15.30;97.20;;;;;;4589913;19;20050;-28
2022/05/14 11:16:47;;;;;;;;;;;15.30;97.20;;;;;;4589572;19;19915;-27
2022/05/14 11:18:17;;;;;;;;;;;15.30;97.30;;;;;;4590128;19;19918;-27
2022/05/14 11:19:49;;;;;;;;;;;15.30;97.40;;;;;;4589472;19;19914;-27
2022/05/14 11:21:22;;;;;;;;;;;15.30;96.80;;;;;;4589831;19;19919;-28
2022/05/14 11:23:03;;;;;;;;;;;15.30;96.20;;;;;;4588314;19;19915;-27
2022/05/14 11:24:37;;;;;;;;;;;15.30;96.00;;;;;;4590154;19;19931;-28
2022/05/14 11:26:09;;;;;;;;;;;15.30;96.20;;;;;;4590204;19;19937;-27
2022/05/14 11:27:40;;;;;;;;;;;15.30;95.90;;;;;;4592010;19;19914;-27
2022/05/14 11:29:13;;;;;;;;;;;15.30;95.90;;;;;;4590903;19;19982;-28
2022/05/14 11:30:48;;;;;;;;;;;15.30;96.40;;;;;;4590605;19;20274;-27
2022/05/14 11:32:19;;;;;;;;;;;15.30;96.00;;;;;;4591443;19;19925;-27
2022/05/14 11:33:52;;;;;;;;;;;15.30;96.10;;;;;;4590778;19;19978;-27
2022/05/14 11:35:23;;;;;;;;;;;15.30;96.30;;;;;;4591703;19;19987;-27
2022/05/14 11:36:58;;;;;;;;;;;15.30;96.10;;;;;;4591460;19;20337;-27
2022/05/14 11:38:29;;;;;;;;;;;15.30;95.90;;;;;;4590279;19;19942;-28
2022/05/14 11:40:16;;;;;;;;;;;15.30;95.50;;;;;;4591237;19;19922;-28
2022/05/14 11:41:48;;;;;;;;;;;15.30;95.70;;;;;;4592173;19;20231;-28
2022/05/14 11:43:27;;;;;;;;;;;15.30;95.60;;;;;;4590678;19;19919;-27
2022/05/14 11:45:01;;;;;;;;;;;15.30;96.00;;;;;;4591519;19;19938;-28
2022/05/14 11:46:41;;;;;;;;;;;15.30;96.00;;;;;;4590140;19;19926;-27
2022/05/14 11:48:12;;;;;;;;;;;15.30;96.40;;;;;;4590197;19;19933;-28
2022/05/14 11:49:44;;;;;;;;;;;15.30;96.50;;;;;;4591387;19;19911;-28
2022/05/14 11:51:35;;;;;;;;;;;15.30;96.90;;;;;;4589930;19;19970;-28
2022/05/14 11:53:11;;;;;;;;;;;15.30;97.20;;;;;;4588862;19;19942;-27
2022/05/14 11:54:45;;;;;;;;;;;15.30;97.20;;;;;;4589198;19;19922;-28
2022/05/14 11:56:18;;;;;;;;;;;15.30;96.70;;;;;;4588856;19;19922;-27
2022/05/14 11:57:50;;;;;;;;;;;15.30;96.60;;;;;;4589038;19;19915;-27
2022/05/14 11:59:30;;;;;;;;;;;15.30;96.40;;;;;;4588893;19;19911;-28
2022/05/14 12:01:05;;;;;;;;;;;15.30;96.10;;;;;;4589064;19;19995;-27
2022/05/14 12:02:36;;;;;;;;;;;15.30;96.10;;;;;;4589524;19;20124;-28
2022/05/14 12:04:19;;;;;;;;;;;15.30;95.80;;;;;;4588975;19;19943;-27
2022/05/14 12:05:50;;;;;;;;;;;15.30;97.20;;;;;;4588810;19;20015;-27
2022/05/14 12:07:39;;;;;;;;;;;15.30;96.30;;;;;;4588970;19;20373;-27
2022/05/14 12:09:13;;;;;;;;;;;15.30;96.50;;;;;;4589081;19;20329;-28
2022/05/14 12:10:53;;;;;;;;;;;15.30;96.40;;;;;;4589204;19;19922;-27
2022/05/14 12:12:24;;;;;;;;;;;15.30;96.40;;;;;;4589564;19;19919;-26
2022/05/14 12:14:01;;;;;;;;;;;15.40;96.40;;;;;;4588738;19;19918;-28
2022/05/14 12:15:32;;;;;;;;;;;15.40;96.50;;;;;;4589161;19;19918;-28
2022/05/14 12:17:04;;;;;;;;;;;15.40;96.30;;;;;;4587916;19;20017;-27
2022/05/14 12:18:35;;;;;;;;;;;15.40;96.20;;;;;;4588856;19;19918;-27
2022/05/14 12:20:07;;;;;;;;;;;15.30;95.90;;;;;;4588223;19;19914;-27
2022/05/14 12:21:39;;;;;;;;;;;15.40;96.80;;;;;;4588520;19;19927;-27
2022/05/14 12:23:17;;;;;;;;;;;15.40;95.90;;;;;;4588689;19;20279;-28
2022/05/14 12:24:56;;;;;;;;;;;15.40;95.90;;;;;;4588471;19;19970;-28
2022/05/14 12:26:28;;;;;;;;;;;15.40;96.20;;;;;;4588528;19;20289;-27
2022/05/14 12:27:59;;;;;;;;;;;15.30;95.90;;;;;;4588627;19;19954;-28
2022/05/14 12:29:30;;;;;;;;;;;15.40;95.90;;;;;;4588430;19;19919;-28
2022/05/14 12:34:41;;;;;;;;;;;15.40;95.20;;;;;;4588271;19;19914;-27
2022/05/14 12:36:12;;;;;;;;;;;15.40;95.50;;;;;;4592200;19;19919;-27
2022/05/14 12:37:43;;;;;;;;;;;15.40;96.10;;;;;;4593754;19;19955;-27
2022/05/14 12:39:17;;;;;;;;;;;15.40;96.40;;;;;;4593274;19;19970;-27
2022/05/14 12:40:47;;;;;;;;;;;15.40;96.70;;;;;;4592927;19;19918;-28
2022/05/14 12:42:23;;;;;;;;;;;15.40;96.30;;;;;;4593537;19;20332;-27
2022/05/14 12:43:53;;;;;;;;;;;15.40;96.00;;;;;;4593165;19;19915;-27
2022/05/14 12:45:50;;;;;;;;;;;15.40;95.70;;;;;;4592858;19;19915;-28
2022/05/14 12:47:24;;;;;;;;;;;15.40;96.10;;;;;;4592421;19;20322;-27
2022/05/14 12:48:57;;;;;;;;;;;15.50;96.00;;;;;;4593085;19;19918;-27
2022/05/14 12:50:32;;;;;;;;;;;15.50;96.30;;;;;;4593421;19;19914;-28
2022/05/14 12:52:09;;;;;;;;;;;15.40;96.60;;;;;;4593796;19;19938;-26
2022/05/14 12:53:41;;;;;;;;;;;15.40;95.80;;;;;;4593473;19;20016;-28
2022/05/14 12:55:13;;;;;;;;;;;15.40;95.60;;;;;;4594851;19;19926;-28
2022/05/14 12:56:44;;;;;;;;;;;15.40;95.40;;;;;;4591123;19;19921;-27
2022/05/14 12:58:15;;;;;;;;;;;15.40;95.60;;;;;;4593773;19;19930;-27
2022/05/14 12:59:46;;;;;;;;;;;15.40;95.50;;;;;;4594432;19;19922;-28
2022/05/14 13:01:18;;;;;;;;;;;15.40;95.40;;;;;;4595071;19;19915;-28
2022/05/14 13:02:52;;;;;;;;;;;15.40;95.50;;;;;;4593966;19;19919;-28
2022/05/14 13:04:26;;;;;;;;;;;15.50;95.20;;;;;;4594799;19;20417;-27
2022/05/14 13:06:00;;;;;;;;;;;15.50;95.80;;;;;;4593601;19;20333;-28
2022/05/14 13:07:30;;;;;;;;;;;15.40;95.40;;;;;;4594478;19;20269;-28
2022/05/14 13:09:05;;;;;;;;;;;15.40;95.70;;;;;;4595172;19;19974;-27
2022/05/14 13:10:37;;;;;;;;;;;15.40;96.30;;;;;;4595464;19;19915;-27
2022/05/14 13:12:13;;;;;;;;;;;15.40;95.60;;;;;;4594366;19;19915;-28
2022/05/14 13:13:45;;;;;;;;;;;15.40;96.00;;;;;;4593215;19;19910;-28
2022/05/14 13:15:16;;;;;;;;;;;15.40;95.70;;;;;;4593886;19;20257;-28
2022/05/14 13:16:59;;;;;;;;;;;15.40;95.80;;;;;;4592100;19;19974;-27
2022/05/14 13:18:31;;;;;;;;;;;15.40;96.20;;;;;;4593259;19;19923;-28
2022/05/14 13:20:04;;;;;;;;;;;15.40;96.50;;;;;;4593303;19;20339;-27
2022/05/14 13:21:35;;;;;;;;;;;15.40;95.90;;;;;;4593238;19;19926;-27
2022/05/14 13:23:10;;;;;;;;;;;15.50;96.00;;;;;;4593388;19;20317;-28
2022/05/14 13:24:50;;;;;;;;;;;15.40;96.30;;;;;;4593867;19;19918;-27
2022/05/14 13:26:25;;;;;;;;;;;15.40;95.90;;;;;;4594179;19;19918;-27
2022/05/14 13:28:07;;;;;;;;;;;15.40;96.50;;;;;;4594354;19;19911;-28
2022/05/14 13:29:42;;;;;;;;;;;15.40;96.30;;;;;;4594478;19;19919;-28
2022/05/14 13:31:23;;;;;;;;;;;15.40;96.40;;;;;;4592796;19;19935;-27
2022/05/14 13:33:04;;;;;;;;;;;15.40;96.00;;;;;;4593508;19;20241;-28
2022/05/14 13:38:29;;;;;;;;;;;15.40;96.30;;;;;;4591676;19;19919;-27
2022/05/14 13:40:02;;;;;;;;;;;15.40;96.10;;;;;;4592282;19;19922;-28
2022/05/14 13:41:37;;;;;;;;;;;15.40;95.90;;;;;;4591066;19;19922;-27
2022/05/14 13:43:18;;;;;;;;;;;15.40;96.10;;;;;;4591557;19;20384;-27
2022/05/14 13:44:50;;;;;;;;;;;15.40;96.40;;;;;;4591904;19;19974;-27
2022/05/14 13:46:30;;;;;;;;;;;15.40;96.40;;;;;;4590697;19;19922;-27
2022/05/14 13:48:02;;;;;;;;;;;15.40;96.40;;;;;;4591878;19;19970;-28
2022/05/14 13:49:34;;;;;;;;;;;15.50;96.50;;;;;;4591523;19;20339;-27
2022/05/14 13:51:30;;;;;;;;;;;15.50;96.50;;;;;;4591769;19;19919;-28
2022/05/14 13:53:01;;;;;;;;;;;15.50;96.80;;;;;;4591241;19;19919;-27
2022/05/14 13:54:39;;;;;;;;;;;15.50;96.40;;;;;;4591331;19;19926;-28
2022/05/14 13:56:12;;;;;;;;;;;15.40;97.00;;;;;;4590675;19;19926;-28
2022/05/14 13:57:52;;;;;;;;;;;15.50;96.70;;;;;;4591521;19;20388;-27
2022/05/14 13:59:30;;;;;;;;;;;15.50;96.30;;;;;;4591750;19;19922;-28
2022/05/14 14:01:05;;;;;;;;;;;15.40;96.30;;;;;;4591117;19;19943;-27
2022/05/14 14:02:36;;;;;;;;;;;15.40;95.90;;;;;;4591316;19;19983;-27
2022/05/14 14:04:08;;;;;;;;;;;15.50;96.00;;;;;;4591437;19;19922;-27
2022/05/14 14:05:39;;;;;;;;;;;15.50;96.30;;;;;;4591480;19;19925;-28
2022/05/14 14:07:10;;;;;;;;;;;15.50;96.40;;;;;;4591413;19;19937;-27
2022/05/14 14:08:41;;;;;;;;;;;15.40;96.20;;;;;;4591227;19;19944;-28
2022/05/14 14:10:16;;;;;;;;;;;15.40;96.40;;;;;;4591601;19;19919;-27
2022/05/14 14:11:47;;;;;;;;;;;15.40;96.30;;;;;;4591452;19;19989;-28
2022/05/14 14:13:18;;;;;;;;;;;15.40;96.30;;;;;;4591765;19;19918;-28
2022/05/14 14:14:50;;;;;;;;;;;15.40;96.70;;;;;;4593258;19;19914;-27
2022/05/14 14:16:21;;;;;;;;;;;15.50;96.70;;;;;;4591830;19;19923;-28
2022/05/14 14:17:52;;;;;;;;;;;15.40;96.90;;;;;;4593088;19;19915;-28
2022/05/14 14:19:24;;;;;;;;;;;15.50;97.30;;;;;;4593802;19;19919;-28
2022/05/14 14:20:56;;;;;;;;;;;15.40;97.50;;;;;;4593231;19;19922;-27
2022/05/14 14:22:27;;;;;;;;;;;15.50;97.60;;;;;;4593517;19;19943;-28
2022/05/14 14:23:58;;;;;;;;;;;15.50;97.70;;;;;;4593956;19;19918;-28
2022/05/14 14:25:29;;;;;;;;;;;15.50;97.20;;;;;;4592939;19;19911;-28
2022/05/14 14:27:00;;;;;;;;;;;15.40;97.10;;;;;;4592141;19;19925;-27
2022/05/14 14:28:31;;;;;;;;;;;15.40;97.20;;;;;;4593040;19;19919;-28
2022/05/14 14:30:06;;;;;;;;;;;15.50;97.30;;;;;;4593216;19;19918;-27
2022/05/14 14:31:37;;;;;;;;;;;15.40;97.60;;;;;;4592660;19;19919;-27
2022/05/14 14:33:08;;;;;;;;;;;15.50;97.50;;;;;;4592729;19;19926;-28
2022/05/14 14:34:39;;;;;;;;;;;15.50;97.50;;;;;;4593212;19;20243;-27
2022/05/14 14:36:10;;;;;;;;;;;15.50;97.90;;;;;;4592614;19;19978;-28
2022/05/14 14:37:41;;;;;;;;;;;15.40;98.30;;;;;;4592772;19;19918;-28
2022/05/14 14:39:14;;;;;;;;;;;15.40;98.90;;;;;;4593147;19;19921;-28
2022/05/14 14:40:47;;;;;;;;;;;15.50;98.60;;;;;;4592526;19;19911;-27
2022/05/14 14:42:18;;;;;;;;;;;15.40;97.80;;;;;;4593270;19;19925;-28
2022/05/14 14:43:49;;;;;;;;;;;15.40;97.80;;;;;;4592867;19;19937;-27
2022/05/14 14:45:21;;;;;;;;;;;15.50;97.70;;;;;;4592394;19;19942;-28
2022/05/14 14:46:51;;;;;;;;;;;15.40;97.50;;;;;;4593161;19;20238;-28
2022/05/14 14:48:27;;;;;;;;;;;15.40;97.40;;;;;;4592444;19;19915;-27
2022/05/14 14:49:58;;;;;;;;;;;15.40;97.70;;;;;;4592249;19;19918;-27
2022/05/14 14:51:29;;;;;;;;;;;15.40;97.50;;;;;;4592344;19;19945;-27
2022/05/14 14:53:00;;;;;;;;;;;15.40;97.60;;;;;;4593102;19;19918;-28
2022/05/14 14:54:31;;;;;;;;;;;15.40;97.70;;;;;;4592421;19;19921;-27
2022/05/14 14:56:02;;;;;;;;;;;15.40;98.30;;;;;;4592241;19;19919;-28
2022/05/14 14:57:34;;;;;;;;;;;15.50;98.10;;;;;;4591249;19;20371;-27
2022/05/14 14:59:04;;;;;;;;;;;15.40;98.50;;;;;;4591678;19;19915;-28
2022/05/14 15:00:42;;;;;;;;;;;15.40;98.20;;;;;;4592266;19;20337;-28
2022/05/14 15:02:21;;;;;;;;;;;15.40;98.10;;;;;;4591363;19;19922;-27
2022/05/14 15:04:19;;;;;;;;;;;15.50;98.60;;;;;;4590993;19;20260;-28
2022/05/14 15:05:51;;;;;;;;;;;15.50;97.90;;;;;;4589999;19;20053;-27
2022/05/14 15:07:22;;;;;;;;;;;15.50;98.30;;;;;;4590265;19;19925;-28
2022/05/14 15:08:53;;;;;;;;;;;15.50;97.80;;;;;;4590033;19;19935;-28
2022/05/14 15:10:24;;;;;;;;;;;15.50;98.10;;;;;;4588881;19;20008;-28
2022/05/14 15:11:55;;;;;;;;;;;15.50;97.90;;;;;;4589714;19;20366;-28
2022/05/14 15:13:27;;;;;;;;;;;15.50;97.80;;;;;;4589961;19;19919;-27
2022/05/14 15:14:58;;;;;;;;;;;15.50;97.80;;;;;;4589704;19;20412;-28
2022/05/14 15:16:29;;;;;;;;;;;15.50;98.20;;;;;;4589710;19;19911;-28
2022/05/14 15:17:59;;;;;;;;;;;15.50;98.10;;;;;;4589664;19;19926;-27
2022/05/14 15:19:30;;;;;;;;;;;15.60;98.20;;;;;;4588637;19;19927;-28
2022/05/14 15:21:02;;;;;;;;;;;15.50;98.10;;;;;;4589249;19;19911;-27
2022/05/14 15:22:33;;;;;;;;;;;15.60;98.00;;;;;;4589020;19;19932;-28
2022/05/14 15:24:04;;;;;;;;;;;15.60;98.40;;;;;;4588966;19;19922;-28
2022/05/14 15:25:35;;;;;;;;;;;15.60;98.20;;;;;;4589164;19;19923;-26
2022/05/14 15:27:07;;;;;;;;;;;15.60;98.20;;;;;;4587487;19;20388;-30
2022/05/14 15:28:39;;;;;;;;;;;15.60;98.00;;;;;;4590077;19;19922;-28
2022/05/14 15:30:10;;;;;;;;;;;15.60;98.40;;;;;;4590308;19;19919;-28
2022/05/14 15:31:47;;;;;;;;;;;15.60;97.60;;;;;;4588821;19;19919;-27
2022/05/14 15:33:18;;;;;;;;;;;15.60;97.90;;;;;;4587354;19;19918;-28
2022/05/14 15:34:49;;;;;;;;;;;15.70;97.90;;;;;;4589422;19;20380;-27
2022/05/14 15:36:20;;;;;;;;;;;15.70;97.80;;;;;;4588233;19;19910;-28
2022/05/14 15:37:52;;;;;;;;;;;15.70;97.90;;;;;;4588673;19;19989;-28
2022/05/14 15:39:23;;;;;;;;;;;15.70;97.90;;;;;;4588187;19;19978;-28
2022/05/14 15:40:54;;;;;;;;;;;15.70;96.90;;;;;;4589533;19;19923;-27
2022/05/14 15:42:37;;;;;;;;;;;15.70;96.70;;;;;;4589724;19;19925;-28
2022/05/14 15:44:10;;;;;;;;;;;15.70;96.80;;;;;;4592405;19;19918;-27
2022/05/14 15:45:42;;;;;;;;;;;15.70;97.80;;;;;;4591192;19;19929;-28
2022/05/14 15:47:14;;;;;;;;;;;15.70;97.10;;;;;;4588816;19;19926;-28
2022/05/14 15:48:46;;;;;;;;;;;15.70;97.30;;;;;;4590446;19;19918;-27
2022/05/14 15:50:18;;;;;;;;;;;15.70;96.90;;;;;;4589700;19;19964;-28